sensor_id;sensor_type;location;lat;lon;timestamp;temperature;humidity
12426;DHT22;6277;49.824;9.562;2024-02-26T00:01:10;8.50;61.80
12426;DHT22;6277;49.824;9.562;2024-02-26T00:03:35;8.50;61.80
12426;DHT22;6277;49.824;9.562;2024-02-26T00:06:01;8.50;61.90
12426;DHT22;6277;49.824;9.562;2024-02-26T00:08:28;8.40;61.90
12426;DHT22;6277;49.824;9.562;2024-02-26T00:10:53;8.40;62.00
12426;DHT22;6277;49.824;9.562;2024-02-26T00:13:19;8.50;62.00
12426;DHT22;6277;49.824;9.562;2024-02-26T00:15:45;8.40;62.00
12426;DHT22;6277;49.824;9.562;2024-02-26T00:18:11;8.40;62.10
12426;DHT22;6277;49.824;9.562;2024-02-26T00:20:37;8.50;62.20
12426;DHT22;6277;49.824;9.562;2024-02-26T00:23:02;8.40;62.70
12426;DHT22;6277;49.824;9.562;2024-02-26T00:25:28;8.50;62.20
12426;DHT22;6277;49.824;9.562;2024-02-26T00:27:53;8.50;62.20
12426;DHT22;6277;49.824;9.562;2024-02-26T00:30:19;8.50;62.20
12426;DHT22;6277;49.824;9.562;2024-02-26T00:32:44;8.50;62.20
12426;DHT22;6277;49.824;9.562;2024-02-26T00:35:10;8.50;62.10
12426;DHT22;6277;49.824;9.562;2024-02-26T00:37:35;8.50;62.10
12426;DHT22;6277;49.824;9.562;2024-02-26T00:40:01;8.50;62.10
12426;DHT22;6277;49.824;9.562;2024-02-26T00:42:27;8.50;62.10
12426;DHT22;6277;49.824;9.562;2024-02-26T00:44:52;8.50;62.00
12426;DHT22;6277;49.824;9.562;2024-02-26T00:47:18;8.40;62.00
12426;DHT22;6277;49.824;9.562;2024-02-26T00:49:43;8.40;62.10
12426;DHT22;6277;49.824;9.562;2024-02-26T00:52:09;8.40;62.00
12426;DHT22;6277;49.824;9.562;2024-02-26T00:54:34;8.40;62.10
12426;DHT22;6277;49.824;9.562;2024-02-26T00:57:00;8.40;62.20
12426;DHT22;6277;49.824;9.562;2024-02-26T00:59:25;8.30;62.20
12426;DHT22;6277;49.824;9.562;2024-02-26T01:01:51;8.30;62.30
12426;DHT22;6277;49.824;9.562;2024-02-26T01:04:16;8.30;63.00
12426;DHT22;6277;49.824;9.562;2024-02-26T01:06:41;8.30;62.40
12426;DHT22;6277;49.824;9.562;2024-02-26T01:09:07;8.40;62.50
12426;DHT22;6277;49.824;9.562;2024-02-26T01:11:33;8.40;62.50
12426;DHT22;6277;49.824;9.562;2024-02-26T01:13:59;8.40;62.60
12426;DHT22;6277;49.824;9.562;2024-02-26T01:16:24;8.40;62.60
12426;DHT22;6277;49.824;9.562;2024-02-26T01:18:50;8.40;62.70
12426;DHT22;6277;49.824;9.562;2024-02-26T01:21:15;8.40;62.70
12426;DHT22;6277;49.824;9.562;2024-02-26T01:23:41;8.50;62.70
12426;DHT22;6277;49.824;9.562;2024-02-26T01:26:07;8.50;62.70
12426;DHT22;6277;49.824;9.562;2024-02-26T01:28:33;8.50;62.70
12426;DHT22;6277;49.824;9.562;2024-02-26T01:30:58;8.60;62.70
12426;DHT22;6277;49.824;9.562;2024-02-26T01:33:26;8.60;62.70
12426;DHT22;6277;49.824;9.562;2024-02-26T01:35:51;8.60;62.70
12426;DHT22;6277;49.824;9.562;2024-02-26T01:38:18;8.60;62.70
12426;DHT22;6277;49.824;9.562;2024-02-26T01:40:44;8.60;62.70
12426;DHT22;6277;49.824;9.562;2024-02-26T01:43:09;8.60;62.70
12426;DHT22;6277;49.824;9.562;2024-02-26T01:45:35;8.60;62.60
12426;DHT22;6277;49.824;9.562;2024-02-26T01:48:00;8.70;63.40
12426;DHT22;6277;49.824;9.562;2024-02-26T01:50:26;8.70;62.70
12426;DHT22;6277;49.824;9.562;2024-02-26T01:52:53;8.70;62.70
12426;DHT22;6277;49.824;9.562;2024-02-26T01:55:20;8.70;62.70
12426;DHT22;6277;49.824;9.562;2024-02-26T01:57:46;8.70;62.70
12426;DHT22;6277;49.824;9.562;2024-02-26T02:00:14;8.70;62.70
12426;DHT22;6277;49.824;9.562;2024-02-26T02:02:40;8.70;62.70
12426;DHT22;6277;49.824;9.562;2024-02-26T02:05:08;8.70;62.70
12426;DHT22;6277;49.824;9.562;2024-02-26T02:07:35;8.70;62.70
12426;DHT22;6277;49.824;9.562;2024-02-26T02:10:01;8.70;62.60
12426;DHT22;6277;49.824;9.562;2024-02-26T02:12:27;8.80;62.70
12426;DHT22;6277;49.824;9.562;2024-02-26T02:14:52;8.80;62.70
12426;DHT22;6277;49.824;9.562;2024-02-26T02:17:19;8.70;62.60
12426;DHT22;6277;49.824;9.562;2024-02-26T02:19:45;8.70;62.60
12426;DHT22;6277;49.824;9.562;2024-02-26T02:22:10;8.70;62.60
12426;DHT22;6277;49.824;9.562;2024-02-26T02:24:36;8.70;62.60
12426;DHT22;6277;49.824;9.562;2024-02-26T02:27:02;8.70;62.60
12426;DHT22;6277;49.824;9.562;2024-02-26T02:29:28;8.70;62.70
12426;DHT22;6277;49.824;9.562;2024-02-26T02:31:54;8.70;62.70
12426;DHT22;6277;49.824;9.562;2024-02-26T02:34:21;8.70;62.70
12426;DHT22;6277;49.824;9.562;2024-02-26T02:36:52;8.70;62.80
12426;DHT22;6277;49.824;9.562;2024-02-26T02:39:17;8.70;62.80
12426;DHT22;6277;49.824;9.562;2024-02-26T02:41:43;8.70;62.70
12426;DHT22;6277;49.824;9.562;2024-02-26T02:44:09;8.70;62.70
12426;DHT22;6277;49.824;9.562;2024-02-26T02:46:34;8.70;62.70
12426;DHT22;6277;49.824;9.562;2024-02-26T02:49:01;8.70;62.80
12426;DHT22;6277;49.824;9.562;2024-02-26T02:51:26;8.70;62.80
12426;DHT22;6277;49.824;9.562;2024-02-26T02:53:52;8.70;62.70
12426;DHT22;6277;49.824;9.562;2024-02-26T02:56:18;8.70;62.70
12426;DHT22;6277;49.824;9.562;2024-02-26T02:58:43;8.70;62.70
12426;DHT22;6277;49.824;9.562;2024-02-26T03:01:09;8.70;62.60
12426;DHT22;6277;49.824;9.562;2024-02-26T03:03:34;8.70;62.70
12426;DHT22;6277;49.824;9.562;2024-02-26T03:06:02;8.60;62.60
12426;DHT22;6277;49.824;9.562;2024-02-26T03:08:28;8.70;62.70
12426;DHT22;6277;49.824;9.562;2024-02-26T03:10:53;8.60;62.60
12426;DHT22;6277;49.824;9.562;2024-02-26T03:13:19;8.60;62.60
12426;DHT22;6277;49.824;9.562;2024-02-26T03:15:44;8.60;62.60
12426;DHT22;6277;49.824;9.562;2024-02-26T03:18:10;8.60;63.10
12426;DHT22;6277;49.824;9.562;2024-02-26T03:20:35;8.60;62.70
12426;DHT22;6277;49.824;9.562;2024-02-26T03:23:02;8.60;62.70
12426;DHT22;6277;49.824;9.562;2024-02-26T03:25:28;8.50;62.60
12426;DHT22;6277;49.824;9.562;2024-02-26T03:27:53;8.50;62.60
12426;DHT22;6277;49.824;9.562;2024-02-26T03:30:19;8.50;62.60
12426;DHT22;6277;49.824;9.562;2024-02-26T03:32:44;8.60;62.60
12426;DHT22;6277;49.824;9.562;2024-02-26T03:35:10;8.50;62.60
12426;DHT22;6277;49.824;9.562;2024-02-26T03:37:36;8.50;62.60
12426;DHT22;6277;49.824;9.562;2024-02-26T03:40:01;8.50;62.60
12426;DHT22;6277;49.824;9.562;2024-02-26T03:42:28;8.60;62.60
12426;DHT22;6277;49.824;9.562;2024-02-26T03:44:53;8.50;62.60
12426;DHT22;6277;49.824;9.562;2024-02-26T03:47:19;8.50;62.60
12426;DHT22;6277;49.824;9.562;2024-02-26T03:49:44;8.50;62.60
12426;DHT22;6277;49.824;9.562;2024-02-26T03:52:10;8.50;62.60
12426;DHT22;6277;49.824;9.562;2024-02-26T03:54:35;8.50;62.50
12426;DHT22;6277;49.824;9.562;2024-02-26T03:57:01;8.50;62.60
12426;DHT22;6277;49.824;9.562;2024-02-26T03:59:27;8.50;62.60
12426;DHT22;6277;49.824;9.562;2024-02-26T04:01:52;8.50;62.60
12426;DHT22;6277;49.824;9.562;2024-02-26T04:04:18;8.50;62.60
12426;DHT22;6277;49.824;9.562;2024-02-26T04:06:46;8.50;62.60
12426;DHT22;6277;49.824;9.562;2024-02-26T04:09:14;8.50;62.60
12426;DHT22;6277;49.824;9.562;2024-02-26T04:11:39;8.50;62.60
12426;DHT22;6277;49.824;9.562;2024-02-26T04:14:05;8.50;62.60
12426;DHT22;6277;49.824;9.562;2024-02-26T04:16:34;8.40;62.60
12426;DHT22;6277;49.824;9.562;2024-02-26T04:18:59;8.50;62.60
12426;DHT22;6277;49.824;9.562;2024-02-26T04:21:25;8.40;62.60
12426;DHT22;6277;49.824;9.562;2024-02-26T04:23:50;8.40;62.60
12426;DHT22;6277;49.824;9.562;2024-02-26T04:26:16;8.50;62.70
12426;DHT22;6277;49.824;9.562;2024-02-26T04:28:42;8.50;62.60
12426;DHT22;6277;49.824;9.562;2024-02-26T04:31:07;8.40;62.60
12426;DHT22;6277;49.824;9.562;2024-02-26T04:33:34;8.40;62.70
12426;DHT22;6277;49.824;9.562;2024-02-26T04:36:00;8.40;62.50
12426;DHT22;6277;49.824;9.562;2024-02-26T04:38:26;8.40;62.50
12426;DHT22;6277;49.824;9.562;2024-02-26T04:40:52;8.40;62.60
12426;DHT22;6277;49.824;9.562;2024-02-26T04:43:17;8.40;62.60
12426;DHT22;6277;49.824;9.562;2024-02-26T04:45:44;8.40;62.60
12426;DHT22;6277;49.824;9.562;2024-02-26T04:48:10;8.40;62.60
12426;DHT22;6277;49.824;9.562;2024-02-26T04:50:35;8.40;62.60
12426;DHT22;6277;49.824;9.562;2024-02-26T04:53:01;8.40;62.60
12426;DHT22;6277;49.824;9.562;2024-02-26T04:55:26;8.40;62.70
12426;DHT22;6277;49.824;9.562;2024-02-26T04:57:52;8.40;62.70
12426;DHT22;6277;49.824;9.562;2024-02-26T05:00:17;8.40;62.70
12426;DHT22;6277;49.824;9.562;2024-02-26T05:02:43;8.40;62.70
12426;DHT22;6277;49.824;9.562;2024-02-26T05:05:09;8.40;62.70
12426;DHT22;6277;49.824;9.562;2024-02-26T05:07:39;8.40;62.70
12426;DHT22;6277;49.824;9.562;2024-02-26T05:10:05;8.40;62.80
12426;DHT22;6277;49.824;9.562;2024-02-26T05:12:31;8.40;62.70
12426;DHT22;6277;49.824;9.562;2024-02-26T05:14:56;8.40;62.80
12426;DHT22;6277;49.824;9.562;2024-02-26T05:17:22;8.50;62.80
12426;DHT22;6277;49.824;9.562;2024-02-26T05:19:47;8.40;62.80
12426;DHT22;6277;49.824;9.562;2024-02-26T05:22:13;8.40;62.80
12426;DHT22;6277;49.824;9.562;2024-02-26T05:24:38;8.50;62.80
12426;DHT22;6277;49.824;9.562;2024-02-26T05:27:04;8.50;62.90
12426;DHT22;6277;49.824;9.562;2024-02-26T05:29:30;8.50;62.80
12426;DHT22;6277;49.824;9.562;2024-02-26T05:31:56;8.50;62.90
12426;DHT22;6277;49.824;9.562;2024-02-26T05:34:21;8.50;62.80
12426;DHT22;6277;49.824;9.562;2024-02-26T05:36:47;8.50;62.90
12426;DHT22;6277;49.824;9.562;2024-02-26T05:39:12;8.50;62.90
12426;DHT22;6277;49.824;9.562;2024-02-26T05:41:38;8.50;62.90
12426;DHT22;6277;49.824;9.562;2024-02-26T05:44:03;8.50;62.90
12426;DHT22;6277;49.824;9.562;2024-02-26T05:46:29;8.50;62.90
12426;DHT22;6277;49.824;9.562;2024-02-26T05:48:55;8.50;62.80
12426;DHT22;6277;49.824;9.562;2024-02-26T05:51:20;8.50;62.90
12426;DHT22;6277;49.824;9.562;2024-02-26T05:53:46;8.50;62.80
12426;DHT22;6277;49.824;9.562;2024-02-26T05:56:13;8.50;62.90
12426;DHT22;6277;49.824;9.562;2024-02-26T05:58:38;8.50;62.80
12426;DHT22;6277;49.824;9.562;2024-02-26T06:01:04;8.50;62.80
12426;DHT22;6277;49.824;9.562;2024-02-26T06:03:29;8.60;63.00
12426;DHT22;6277;49.824;9.562;2024-02-26T06:05:55;8.50;62.90
12426;DHT22;6277;49.824;9.562;2024-02-26T06:08:20;8.50;62.90
12426;DHT22;6277;49.824;9.562;2024-02-26T06:10:46;8.60;63.00
12426;DHT22;6277;49.824;9.562;2024-02-26T06:13:11;8.50;62.90
12426;DHT22;6277;49.824;9.562;2024-02-26T06:15:37;8.60;63.10
12426;DHT22;6277;49.824;9.562;2024-02-26T06:18:02;8.60;63.00
12426;DHT22;6277;49.824;9.562;2024-02-26T06:20:28;8.60;63.00
12426;DHT22;6277;49.824;9.562;2024-02-26T06:22:54;8.60;63.10
12426;DHT22;6277;49.824;9.562;2024-02-26T06:25:19;8.60;63.00
12426;DHT22;6277;49.824;9.562;2024-02-26T06:27:45;8.60;63.00
12426;DHT22;6277;49.824;9.562;2024-02-26T06:30:11;8.60;63.00
12426;DHT22;6277;49.824;9.562;2024-02-26T06:32:39;8.60;63.00
12426;DHT22;6277;49.824;9.562;2024-02-26T06:35:05;8.60;63.10
12426;DHT22;6277;49.824;9.562;2024-02-26T06:37:33;8.70;63.20
12426;DHT22;6277;49.824;9.562;2024-02-26T06:39:59;8.70;63.30
12426;DHT22;6277;49.824;9.562;2024-02-26T06:42:25;8.70;63.30
12426;DHT22;6277;49.824;9.562;2024-02-26T06:44:50;8.70;63.40
12426;DHT22;6277;49.824;9.562;2024-02-26T06:47:16;8.70;63.40
12426;DHT22;6277;49.824;9.562;2024-02-26T06:49:41;8.80;63.50
12426;DHT22;6277;49.824;9.562;2024-02-26T06:52:07;8.80;63.50
12426;DHT22;6277;49.824;9.562;2024-02-26T06:54:33;8.80;63.50
12426;DHT22;6277;49.824;9.562;2024-02-26T06:56:59;8.80;63.50
12426;DHT22;6277;49.824;9.562;2024-02-26T06:59:24;8.80;63.50
12426;DHT22;6277;49.824;9.562;2024-02-26T07:01:50;8.90;63.60
12426;DHT22;6277;49.824;9.562;2024-02-26T07:04:15;8.90;63.60
12426;DHT22;6277;49.824;9.562;2024-02-26T07:06:41;8.90;63.60
12426;DHT22;6277;49.824;9.562;2024-02-26T07:09:08;8.90;63.70
12426;DHT22;6277;49.824;9.562;2024-02-26T07:11:33;8.90;63.70
12426;DHT22;6277;49.824;9.562;2024-02-26T07:13:59;8.90;63.70
12426;DHT22;6277;49.824;9.562;2024-02-26T07:16:26;8.90;63.80
12426;DHT22;6277;49.824;9.562;2024-02-26T07:18:52;9.00;63.90
12426;DHT22;6277;49.824;9.562;2024-02-26T07:21:18;9.00;63.90
12426;DHT22;6277;49.824;9.562;2024-02-26T07:23:43;9.00;63.90
12426;DHT22;6277;49.824;9.562;2024-02-26T07:26:09;9.00;63.90
12426;DHT22;6277;49.824;9.562;2024-02-26T07:28:37;9.00;64.00
12426;DHT22;6277;49.824;9.562;2024-02-26T07:31:02;9.00;64.00
12426;DHT22;6277;49.824;9.562;2024-02-26T07:33:28;9.00;64.00
12426;DHT22;6277;49.824;9.562;2024-02-26T07:35:54;9.10;64.10
12426;DHT22;6277;49.824;9.562;2024-02-26T07:38:19;9.10;64.20
12426;DHT22;6277;49.824;9.562;2024-02-26T07:40:45;9.10;64.20
12426;DHT22;6277;49.824;9.562;2024-02-26T07:43:10;9.10;64.20
12426;DHT22;6277;49.824;9.562;2024-02-26T07:45:36;9.10;64.20
12426;DHT22;6277;49.824;9.562;2024-02-26T07:48:02;9.10;64.30
12426;DHT22;6277;49.824;9.562;2024-02-26T07:50:27;9.20;64.40
12426;DHT22;6277;49.824;9.562;2024-02-26T07:52:53;9.20;64.40
12426;DHT22;6277;49.824;9.562;2024-02-26T07:55:19;9.30;64.40
12426;DHT22;6277;49.824;9.562;2024-02-26T07:57:44;9.30;64.40
12426;DHT22;6277;49.824;9.562;2024-02-26T08:00:10;9.30;64.50
12426;DHT22;6277;49.824;9.562;2024-02-26T08:02:36;9.30;64.50
12426;DHT22;6277;49.824;9.562;2024-02-26T08:05:02;9.30;64.60
12426;DHT22;6277;49.824;9.562;2024-02-26T08:07:28;9.30;64.60
12426;DHT22;6277;49.824;9.562;2024-02-26T08:09:54;9.30;64.70
12426;DHT22;6277;49.824;9.562;2024-02-26T08:12:19;9.40;64.70
12426;DHT22;6277;49.824;9.562;2024-02-26T08:14:45;9.40;64.70
12426;DHT22;6277;49.824;9.562;2024-02-26T08:17:10;9.40;64.80
12426;DHT22;6277;49.824;9.562;2024-02-26T08:19:36;9.40;64.80
12426;DHT22;6277;49.824;9.562;2024-02-26T08:22:02;9.40;64.80
12426;DHT22;6277;49.824;9.562;2024-02-26T08:24:28;9.50;65.00
12426;DHT22;6277;49.824;9.562;2024-02-26T08:26:54;9.50;65.10
12426;DHT22;6277;49.824;9.562;2024-02-26T08:29:19;9.50;65.10
12426;DHT22;6277;49.824;9.562;2024-02-26T08:31:45;9.60;65.20
12426;DHT22;6277;49.824;9.562;2024-02-26T08:34:10;9.60;65.20
12426;DHT22;6277;49.824;9.562;2024-02-26T08:36:36;9.70;65.10
12426;DHT22;6277;49.824;9.562;2024-02-26T08:39:01;9.60;65.10
12426;DHT22;6277;49.824;9.562;2024-02-26T08:41:27;9.70;65.20
12426;DHT22;6277;49.824;9.562;2024-02-26T08:43:52;9.70;65.20
12426;DHT22;6277;49.824;9.562;2024-02-26T08:46:18;9.70;65.20
12426;DHT22;6277;49.824;9.562;2024-02-26T08:48:43;9.80;65.40
12426;DHT22;6277;49.824;9.562;2024-02-26T08:51:09;9.80;65.40
12426;DHT22;6277;49.824;9.562;2024-02-26T08:53:38;9.80;65.30
12426;DHT22;6277;49.824;9.562;2024-02-26T08:56:04;9.80;65.40
12426;DHT22;6277;49.824;9.562;2024-02-26T08:58:30;9.90;65.30
12426;DHT22;6277;49.824;9.562;2024-02-26T09:00:55;9.80;65.20
12426;DHT22;6277;49.824;9.562;2024-02-26T09:03:21;9.80;65.20
12426;DHT22;6277;49.824;9.562;2024-02-26T09:05:47;9.90;65.40
12426;DHT22;6277;49.824;9.562;2024-02-26T09:08:12;9.90;65.50
12426;DHT22;6277;49.824;9.562;2024-02-26T09:10:39;9.90;65.50
12426;DHT22;6277;49.824;9.562;2024-02-26T09:13:04;9.90;65.50
12426;DHT22;6277;49.824;9.562;2024-02-26T09:15:30;9.90;65.50
12426;DHT22;6277;49.824;9.562;2024-02-26T09:17:55;10.00;65.70
12426;DHT22;6277;49.824;9.562;2024-02-26T09:20:21;10.00;65.80
12426;DHT22;6277;49.824;9.562;2024-02-26T09:22:47;10.00;65.80
12426;DHT22;6277;49.824;9.562;2024-02-26T09:25:13;10.10;65.90
12426;DHT22;6277;49.824;9.562;2024-02-26T09:27:41;10.10;65.90
12426;DHT22;6277;49.824;9.562;2024-02-26T09:30:08;10.20;65.90
12426;DHT22;6277;49.824;9.562;2024-02-26T09:32:33;10.20;65.90
12426;DHT22;6277;49.824;9.562;2024-02-26T09:34:59;10.30;66.00
12426;DHT22;6277;49.824;9.562;2024-02-26T09:37:25;10.30;66.10
12426;DHT22;6277;49.824;9.562;2024-02-26T09:39:50;10.40;66.10
12426;DHT22;6277;49.824;9.562;2024-02-26T09:42:18;10.50;66.20
12426;DHT22;6277;49.824;9.562;2024-02-26T09:44:44;10.60;66.30
12426;DHT22;6277;49.824;9.562;2024-02-26T09:47:11;10.70;66.30
12426;DHT22;6277;49.824;9.562;2024-02-26T09:49:39;10.70;66.30
12426;DHT22;6277;49.824;9.562;2024-02-26T09:52:05;10.80;66.20
12426;DHT22;6277;49.824;9.562;2024-02-26T09:54:32;10.90;66.00
12426;DHT22;6277;49.824;9.562;2024-02-26T09:57:02;10.90;65.90
12426;DHT22;6277;49.824;9.562;2024-02-26T09:59:29;11.00;65.80
12426;DHT22;6277;49.824;9.562;2024-02-26T10:02:00;11.00;65.70
12426;DHT22;6277;49.824;9.562;2024-02-26T10:04:26;11.00;65.70
12426;DHT22;6277;49.824;9.562;2024-02-26T10:06:52;11.00;65.70
12426;DHT22;6277;49.824;9.562;2024-02-26T10:09:19;11.10;65.60
12426;DHT22;6277;49.824;9.562;2024-02-26T10:11:46;11.10;65.50
12426;DHT22;6277;49.824;9.562;2024-02-26T10:14:14;11.10;65.70
12426;DHT22;6277;49.824;9.562;2024-02-26T10:16:40;11.10;65.80
12426;DHT22;6277;49.824;9.562;2024-02-26T10:19:06;11.10;65.90
12426;DHT22;6277;49.824;9.562;2024-02-26T10:21:32;11.20;66.00
12426;DHT22;6277;49.824;9.562;2024-02-26T10:23:57;11.20;66.00
12426;DHT22;6277;49.824;9.562;2024-02-26T10:26:23;11.30;66.20
12426;DHT22;6277;49.824;9.562;2024-02-26T10:28:49;11.40;66.20
12426;DHT22;6277;49.824;9.562;2024-02-26T10:31:15;11.40;66.00
12426;DHT22;6277;49.824;9.562;2024-02-26T10:33:41;11.50;65.90
12426;DHT22;6277;49.824;9.562;2024-02-26T10:36:08;11.50;65.70
12426;DHT22;6277;49.824;9.562;2024-02-26T10:38:35;11.50;65.50
12426;DHT22;6277;49.824;9.562;2024-02-26T10:41:23;11.50;65.50
12426;DHT22;6277;49.824;9.562;2024-02-26T10:43:48;11.60;65.60
12426;DHT22;6277;49.824;9.562;2024-02-26T10:46:14;11.60;65.60
12426;DHT22;6277;49.824;9.562;2024-02-26T10:48:39;11.60;65.60
12426;DHT22;6277;49.824;9.562;2024-02-26T10:51:05;11.60;65.60
12426;DHT22;6277;49.824;9.562;2024-02-26T10:53:33;11.60;65.80
12426;DHT22;6277;49.824;9.562;2024-02-26T10:56:03;11.70;65.90
12426;DHT22;6277;49.824;9.562;2024-02-26T10:58:29;11.80;66.00
12426;DHT22;6277;49.824;9.562;2024-02-26T11:00:57;11.90;66.00
12426;DHT22;6277;49.824;9.562;2024-02-26T11:03:23;11.90;65.90
12426;DHT22;6277;49.824;9.562;2024-02-26T11:05:50;12.00;65.90
12426;DHT22;6277;49.824;9.562;2024-02-26T11:08:18;12.10;65.90
12426;DHT22;6277;49.824;9.562;2024-02-26T11:10:47;12.20;66.00
12426;DHT22;6277;49.824;9.562;2024-02-26T11:13:14;12.30;65.90
12426;DHT22;6277;49.824;9.562;2024-02-26T11:15:40;12.40;66.00
12426;DHT22;6277;49.824;9.562;2024-02-26T11:18:07;12.50;66.00
12426;DHT22;6277;49.824;9.562;2024-02-26T11:20:34;12.60;66.10
12426;DHT22;6277;49.824;9.562;2024-02-26T11:23:03;12.80;66.30
12426;DHT22;6277;49.824;9.562;2024-02-26T11:25:29;12.90;66.00
12426;DHT22;6277;49.824;9.562;2024-02-26T11:28:00;13.00;65.90
12426;DHT22;6277;49.824;9.562;2024-02-26T11:30:30;13.20;65.80
12426;DHT22;6277;49.824;9.562;2024-02-26T11:32:57;13.30;65.60
12426;DHT22;6277;49.824;9.562;2024-02-26T11:35:23;13.40;65.60
12426;DHT22;6277;49.824;9.562;2024-02-26T11:37:56;13.50;65.60
12426;DHT22;6277;49.824;9.562;2024-02-26T11:40:24;13.70;65.40
12426;DHT22;6277;49.824;9.562;2024-02-26T11:42:50;13.80;65.20
12426;DHT22;6277;49.824;9.562;2024-02-26T11:48:15;13.90;64.10
12426;DHT22;6277;49.824;9.562;2024-02-26T11:50:46;14.00;64.30
12426;DHT22;6277;49.824;9.562;2024-02-26T11:53:23;13.90;64.20
12426;DHT22;6277;49.824;9.562;2024-02-26T11:58:44;14.00;63.90
12426;DHT22;6277;49.824;9.562;2024-02-26T12:04:08;14.10;64.00
12426;DHT22;6277;49.824;9.562;2024-02-26T12:06:43;14.10;64.20
12426;DHT22;6277;49.824;9.562;2024-02-26T12:09:09;14.20;63.90
12426;DHT22;6277;49.824;9.562;2024-02-26T12:11:39;14.20;63.80
12426;DHT22;6277;49.824;9.562;2024-02-26T12:14:07;14.30;63.80
12426;DHT22;6277;49.824;9.562;2024-02-26T12:16:40;14.30;63.80
12426;DHT22;6277;49.824;9.562;2024-02-26T12:19:09;14.40;63.70
12426;DHT22;6277;49.824;9.562;2024-02-26T12:21:35;14.40;63.70
12426;DHT22;6277;49.824;9.562;2024-02-26T12:24:11;14.50;63.70
12426;DHT22;6277;49.824;9.562;2024-02-26T12:26:38;14.60;63.60
12426;DHT22;6277;49.824;9.562;2024-02-26T12:29:04;14.70;63.90
12426;DHT22;6277;49.824;9.562;2024-02-26T12:31:30;14.70;63.60
12426;DHT22;6277;49.824;9.562;2024-02-26T12:33:56;14.80;63.30
12426;DHT22;6277;49.824;9.562;2024-02-26T12:36:22;14.90;62.90
12426;DHT22;6277;49.824;9.562;2024-02-26T12:38:50;14.80;62.60
12426;DHT22;6277;49.824;9.562;2024-02-26T12:41:16;14.80;62.20
12426;DHT22;6277;49.824;9.562;2024-02-26T12:43:42;14.70;62.10
12426;DHT22;6277;49.824;9.562;2024-02-26T12:46:07;14.70;62.10
12426;DHT22;6277;49.824;9.562;2024-02-26T12:48:33;14.60;62.10
12426;DHT22;6277;49.824;9.562;2024-02-26T12:50:59;14.50;62.00
12426;DHT22;6277;49.824;9.562;2024-02-26T12:53:25;14.50;62.00
12426;DHT22;6277;49.824;9.562;2024-02-26T12:55:51;14.40;62.10
12426;DHT22;6277;49.824;9.562;2024-02-26T12:58:17;14.40;62.40
12426;DHT22;6277;49.824;9.562;2024-02-26T13:00:45;14.40;62.60
12426;DHT22;6277;49.824;9.562;2024-02-26T13:03:12;14.40;62.70
12426;DHT22;6277;49.824;9.562;2024-02-26T13:05:38;14.50;62.70
12426;DHT22;6277;49.824;9.562;2024-02-26T13:08:05;14.50;62.50
12426;DHT22;6277;49.824;9.562;2024-02-26T13:10:31;14.50;63.00
12426;DHT22;6277;49.824;9.562;2024-02-26T13:12:57;14.50;62.20
12426;DHT22;6277;49.824;9.562;2024-02-26T13:15:22;14.50;62.20
12426;DHT22;6277;49.824;9.562;2024-02-26T13:17:49;14.50;62.20
12426;DHT22;6277;49.824;9.562;2024-02-26T13:20:26;14.50;62.20
12426;DHT22;6277;49.824;9.562;2024-02-26T13:23:00;14.60;61.90
12426;DHT22;6277;49.824;9.562;2024-02-26T13:25:26;14.60;61.90
12426;DHT22;6277;49.824;9.562;2024-02-26T13:27:51;14.60;61.90
12426;DHT22;6277;49.824;9.562;2024-02-26T13:30:17;14.60;61.90
12426;DHT22;6277;49.824;9.562;2024-02-26T13:32:44;14.60;61.90
12426;DHT22;6277;49.824;9.562;2024-02-26T13:35:12;14.60;62.00
12426;DHT22;6277;49.824;9.562;2024-02-26T13:37:38;14.70;61.90
12426;DHT22;6277;49.824;9.562;2024-02-26T13:40:11;14.70;62.00
12426;DHT22;6277;49.824;9.562;2024-02-26T13:42:37;14.70;61.80
12426;DHT22;6277;49.824;9.562;2024-02-26T13:45:04;14.80;62.30
12426;DHT22;6277;49.824;9.562;2024-02-26T13:47:34;14.90;62.20
12426;DHT22;6277;49.824;9.562;2024-02-26T13:50:00;15.10;62.20
12426;DHT22;6277;49.824;9.562;2024-02-26T13:52:26;15.20;62.10
12426;DHT22;6277;49.824;9.562;2024-02-26T13:54:52;15.30;61.90
12426;DHT22;6277;49.824;9.562;2024-02-26T13:57:21;15.30;61.60
12426;DHT22;6277;49.824;9.562;2024-02-26T13:59:47;15.40;61.30
12426;DHT22;6277;49.824;9.562;2024-02-26T14:02:13;15.40;61.20
12426;DHT22;6277;49.824;9.562;2024-02-26T14:04:39;15.50;61.10
12426;DHT22;6277;49.824;9.562;2024-02-26T14:07:04;15.50;61.00
12426;DHT22;6277;49.824;9.562;2024-02-26T14:09:30;15.50;60.90
12426;DHT22;6277;49.824;9.562;2024-02-26T14:11:57;15.60;60.70
12426;DHT22;6277;49.824;9.562;2024-02-26T14:14:23;15.60;60.50
12426;DHT22;6277;49.824;9.562;2024-02-26T14:16:48;15.60;60.30
12426;DHT22;6277;49.824;9.562;2024-02-26T14:19:14;15.50;60.30
12426;DHT22;6277;49.824;9.562;2024-02-26T14:21:39;15.50;60.40
12426;DHT22;6277;49.824;9.562;2024-02-26T14:24:05;15.50;60.30
12426;DHT22;6277;49.824;9.562;2024-02-26T14:26:30;15.50;60.20
12426;DHT22;6277;49.824;9.562;2024-02-26T14:28:56;15.50;60.20
12426;DHT22;6277;49.824;9.562;2024-02-26T14:31:21;15.50;61.00
12426;DHT22;6277;49.824;9.562;2024-02-26T14:33:47;15.50;60.30
12426;DHT22;6277;49.824;9.562;2024-02-26T14:36:13;15.50;60.30
12426;DHT22;6277;49.824;9.562;2024-02-26T14:38:39;15.50;60.20
12426;DHT22;6277;49.824;9.562;2024-02-26T14:41:04;15.60;60.20
12426;DHT22;6277;49.824;9.562;2024-02-26T14:43:31;15.60;60.10
12426;DHT22;6277;49.824;9.562;2024-02-26T14:45:58;15.60;60.00
12426;DHT22;6277;49.824;9.562;2024-02-26T14:48:24;15.60;59.80
12426;DHT22;6277;49.824;9.562;2024-02-26T14:50:50;15.70;59.90
12426;DHT22;6277;49.824;9.562;2024-02-26T14:53:16;15.70;59.80
12426;DHT22;6277;49.824;9.562;2024-02-26T14:55:42;15.70;59.60
12426;DHT22;6277;49.824;9.562;2024-02-26T14:58:07;15.70;59.50
12426;DHT22;6277;49.824;9.562;2024-02-26T15:00:34;15.70;59.30
12426;DHT22;6277;49.824;9.562;2024-02-26T15:03:00;15.60;59.20
12426;DHT22;6277;49.824;9.562;2024-02-26T15:05:26;15.60;59.60
12426;DHT22;6277;49.824;9.562;2024-02-26T15:07:52;15.50;59.00
12426;DHT22;6277;49.824;9.562;2024-02-26T15:10:17;15.40;58.90
12426;DHT22;6277;49.824;9.562;2024-02-26T15:12:44;15.40;58.90
12426;DHT22;6277;49.824;9.562;2024-02-26T15:15:09;15.30;58.90
12426;DHT22;6277;49.824;9.562;2024-02-26T15:17:35;15.20;58.90
12426;DHT22;6277;49.824;9.562;2024-02-26T15:20:01;15.10;58.90
12426;DHT22;6277;49.824;9.562;2024-02-26T15:22:27;15.00;58.90
12426;DHT22;6277;49.824;9.562;2024-02-26T15:24:53;15.00;59.00
12426;DHT22;6277;49.824;9.562;2024-02-26T15:27:18;14.90;59.10
12426;DHT22;6277;49.824;9.562;2024-02-26T15:29:44;14.90;59.10
12426;DHT22;6277;49.824;9.562;2024-02-26T15:32:10;14.80;59.00
12426;DHT22;6277;49.824;9.562;2024-02-26T15:34:36;14.80;58.90
12426;DHT22;6277;49.824;9.562;2024-02-26T15:37:02;14.70;59.00
12426;DHT22;6277;49.824;9.562;2024-02-26T15:39:27;14.70;58.90
12426;DHT22;6277;49.824;9.562;2024-02-26T15:41:53;14.60;59.00
12426;DHT22;6277;49.824;9.562;2024-02-26T15:44:18;14.50;59.00
12426;DHT22;6277;49.824;9.562;2024-02-26T15:46:44;14.50;59.00
12426;DHT22;6277;49.824;9.562;2024-02-26T15:49:09;14.40;58.90
12426;DHT22;6277;49.824;9.562;2024-02-26T15:51:35;14.30;58.90
12426;DHT22;6277;49.824;9.562;2024-02-26T15:54:01;14.30;58.90
12426;DHT22;6277;49.824;9.562;2024-02-26T15:56:27;14.20;59.00